Martin Barak

Scout - Sparta Prague
3 Dez 2028
Sonntag
Verarbeitung

Persönlichkeit

Anpassungsfähigkeit (4) Ehrgeiz (6) Kontroverse (3) Loyalität (15) Druck (10) Professionalität (1) Fairness (2) Temperament (14)

Profil

Trainerstil Demokratisch
Lizenz Kontinentale C
Entschlossenheit 12
Menschenführung 11
Motivation 6
Disziplin 8
Arbeitszufriedenheit
100%
Ermüdung
0%
Rolle Scout
Gehalt 56.0K p/W
Vertrag 14.03.2029

Leistung

Verhalten Gut
Trainingseffektivität
50%
Spielerentwicklung
55%
Verletzungsprävention
25%
Taktische Umsetzung
45%

Letzte Ereignisse

Empfahl ein Transferziel jetzt
Empfahl ein Transferziel jetzt
Empfahl ein Transferziel jetzt
Empfahl ein Transferziel jetzt
Spieler begutachtet jetzt
Spieler begutachtet jetzt
Spieler begutachtet jetzt
Spieler begutachtet jetzt

Aktuell beobachtet

249
Spieler Verein Status Fähigkeit Vertrauen Beobachtet Zuletzt beobachtet Letzte Stimme
Eli Junior Kroupi Bournemouth Aktiv 154 / 152 40% 5 02.12.2028 -
Matías Fernández-Pardo Atalanta Aktiv 150 / 159 40% 3 02.12.2028 -
Mohamed Touré Cardiff City Aktiv 130 / 124 40% 2 02.12.2028 -
Trey Nyoni Rotherham United Aktiv 139 / 146 40% 9 01.12.2028 -
Amin Chiakha Rosenborg Aktiv 123 / 127 40% 8 01.12.2028 -
Sindre Walle Egeli Udinese Aktiv 144 / 149 40% 7 01.12.2028 -
Mohamed-Ali Cho Hull City Aktiv 143 / 149 40% 7 01.12.2028 -
Veljko Milosavljević Bournemouth Aktiv 154 / 149 40% 1 01.12.2028 -
Salvador Blopá Wolverhampton Aktiv 125 / 125 40% 1 01.12.2028 -
Isaque Obolon Aktiv 127 / 142 40% 2 30.11.2028 -
Valentino Huertas Morón Aktiv 103 / 118 40% 2 30.11.2028 -
Ryan Francisco Palmeiras Aktiv 135 / 135 40% 4 29.11.2028 -
George Ilenikhena Al-Faisaly Aktiv 134 / 132 40% 3 29.11.2028 -
Kyrell Wilson Barnet Aktiv 123 / 122 40% 2 29.11.2028 -
Mamadou Doumbia Rotherham United Aktiv 135 / 140 40% 4 28.11.2028 -
Ilyas Ansah Hull City Aktiv 148 / 146 40% 2 28.11.2028 -
Antonio Raimondo Bologna Aktiv 134 / 134 40% 1 28.11.2028 -
Jalal Abdullai Molde Aktiv 119 / 119 40% 8 27.11.2028 -
Jayden Danns Bradford City Aktiv 138 / 147 40% 5 27.11.2028 -
Siyabonga Mabena Bidvest Wits Aktiv 131 / 122 40% 3 26.11.2028 -
Mateus Mané Burnley Aktiv 153 / 157 40% 2 25.11.2028 -
Mikey Moore Stockport County Aktiv 144 / 144 40% 3 25.11.2028 -
Sebastian Rodriguez Houston Dynamo Aktiv 120 / 133 40% 2 25.11.2028 -
Álvaro Montoro Botafogo Aktiv 129 / 148 40% 2 25.11.2028 -
Sayfiddin Sodikov Andijon Aktiv 91 / 108 40% 1 25.11.2028 -
Dale Taylor Blackpool Aktiv 128 / 122 40% 5 24.11.2028 -
Sota Kitano Red Bull Salzburg Aktiv 135 / 133 40% 5 24.11.2028 -
Alex Verón Vélez Aktiv 125 / 115 40% 5 24.11.2028 -
Lionel Jara Central Córdoba SdE Aktiv 95 / 97 40% 1 24.11.2028 -
Agustín Ruberto River Plate Aktiv 116 / 119 40% 1 24.11.2028 -
Ibrahim Osman Norwich City Aktiv 146 / 143 40% 8 23.11.2028 -
Tyrique George Everton Aktiv 136 / 131 40% 1 23.11.2028 -
Rio Ngumoha Plymouth Argyle Aktiv 149 / 153 40% 3 22.11.2028 -
Eduardo Lozano Botafogo Aktiv 147 / 146 40% 5 22.11.2028 -
Santiago Segovia Rosario Central Aktiv 123 / 119 40% 2 22.11.2028 -
Santiago Castro OGC Nice Aktiv 154 / 156 40% 3 22.11.2028 -
Gideon Manaseh Ikorodu City Aktiv 95 / 100 40% 2 22.11.2028 -
Louis Page Leicester City Aktiv 136 / 144 40% 1 22.11.2028 -
Harrison Armstrong Ipswich Town Aktiv 138 / 142 40% 1 22.11.2028 -
Máximo Munarriz San Telmo Aktiv 91 / 97 40% 2 20.11.2028 -
Azizbek To'lqinbekov Bunyodkor Aktiv 100 / 110 40% 2 20.11.2028 -
Mateo Aguiar Tigre Aktiv 104 / 125 40% 3 19.11.2028 -
Tahiel Peralta Racing Club Aktiv 109 / 113 40% 2 19.11.2028 -
Luca Meirelles Kudrivka Aktiv 135 / 135 40% 3 17.11.2028 -
Kaye Furo Reading Aktiv 134 / 132 40% 2 17.11.2028 -
Shea Lacey Crystal Palace Aktiv 142 / 140 40% 1 17.11.2028 -
Geovany Quenda Watford Aktiv 151 / 164 40% 1 17.11.2028 -
Xavier Biscayzacú Penarol Aktiv 129 / 131 40% 6 16.11.2028 -
Ayyoub Bouaddi Stoke City Aktiv 157 / 158 40% 2 16.11.2028 -
Ethan Ennis Lincoln City Aktiv 118 / 123 40% 2 16.11.2028 -
Fletcher Boyd Accrington Stanley Aktiv 109 / 118 40% 1 16.11.2028 -
Tyler Fletcher Rotherham United Aktiv 115 / 120 40% 9 15.11.2028 -
Harry Gray Harrogate Town Aktiv 139 / 138 40% 5 15.11.2028 -
Luis Otávio Orlando City Aktiv 106 / 115 40% 2 15.11.2028 -
Luca Koleosho Paris FC Aktiv 146 / 137 40% 2 15.11.2028 -
Lisandro Piñero Banfield Aktiv 117 / 130 40% 1 15.11.2028 -
Tommy Watson Cardiff City Aktiv 142 / 143 40% 5 12.11.2028 -
Francesco Pio Esposito Frosinone Aktiv 157 / 158 40% 3 12.11.2028 -
Babis Kostoulas Oxford United Aktiv 154 / 155 40% 8 11.11.2028 -
Peyton Miller New England Revolution Aktiv 109 / 109 40% 1 10.11.2028 -
Emersonn Ipswich Town Aktiv 140 / 138 40% 5 09.11.2028 -
Christos Mouzakitis Hull City Aktiv 137 / 150 40% 9 06.11.2028 -
Ezekiel Kwame Alladoh Philadelphia Union Aktiv 115 / 128 40% 3 06.11.2028 -
Matvii Ponomarenko Dynamo Kyiv Aktiv 123 / 126 40% 2 06.11.2028 -
Estêvão Portsmouth Aktiv 155 / 159 40% 1 06.11.2028 -
Idan Toklomati Charlotte Football Club Aktiv 120 / 114 40% 5 05.11.2028 -
Jonás Luna Wanderers Aktiv 134 / 131 40% 6 03.11.2028 -
Yassir Zabiri Stade Rennais Aktiv 146 / 149 40% 7 02.11.2028 -
Eric Bile Slavia Sofia Aktiv 131 / 122 40% 3 01.11.2028 -
Luca Williams-Barnett Walsall Aktiv 128 / 127 40% 1 01.11.2028 -
Lucca São Paulo Aktiv 127 / 129 40% 1 01.11.2028 -
Matías Abaldo Ferencvaros Aktiv 128 / 134 40% 3 31.10.2028 -
Julian Hall Real Salt Lake Aktiv 105 / 125 40% 2 29.10.2028 -
Pablo Lago Juventud Aktiv 99 / 103 40% 1 29.10.2028 -
Mohammad Hosseini Malavan Aktiv 123 / 118 40% 2 27.10.2028 -
Nəriman Axundzadə Columbus Crew Aktiv 122 / 130 40% 5 26.10.2028 -
Ibrahim Mbaye Queens Park Rangers Aktiv 141 / 151 40% 1 25.10.2028 -
Luka Andrade Montevideo City Torque Aktiv 112 / 103 40% 2 22.10.2028 -
Pablo Felipe West Ham United Aktiv 150 / 141 40% 1 22.10.2028 -
Henrique Carmo Sochi Aktiv 134 / 137 40% 1 22.10.2028 -
Kevin Kelsy Portland Timbers Aktiv 120 / 122 40% 2 20.10.2028 -
Igor Tyjon Barrow AFC Verhandlung 116 / 127 40% 2 18.10.2028 -
Lukáš Mašek Slovan Liberec Aktiv 130 / 122 40% 3 17.10.2028 -
Malik Mothersille Stockport County Aktiv 129 / 129 40% 4 11.10.2028 -
Mohamed Meïté Al-Hilal Aktiv 130 / 138 40% 1 11.10.2028 -
Mathys Tel Tottenham Aktiv 151 / 155 40% 2 10.10.2028 -
Timofey Simanenka Gomel Aktiv 103 / 102 40% 1 09.10.2028 -
Jonah Kusi-Asare Norwich City Aktiv 122 / 127 40% 1 07.10.2028 -
Aidomo Emakhu Oxford United Aktiv 126 / 134 40% 1 07.10.2028 -
Tobías Andrada River Plate Aktiv 108 / 123 40% 2 04.10.2028 -
Andrija Bulatović Chamois Niortais Aktiv 132 / 140 40% 1 04.10.2028 -
Matías Satas Grimsby Town Aktiv 102 / 114 40% 1 04.10.2028 -
Vadim Rakov CSKA Moscow Aktiv 139 / 128 40% 1 30.09.2028 -
Franculino Brighton Aktiv 151 / 155 40% 1 30.09.2028 -
Matěj Mikulenka Sigma Olomouc Aktiv 117 / 126 72% 2 23.09.2028 Klar befürworten
Kelvin Flórez Deportes Tolima Aktiv 122 / 114 40% 1 23.09.2028 -
Norman Bassette Coventry City Aktiv 122 / 125 40% 2 20.09.2028 -
Jimmy-Jay Morgan Mansfield Town Aktiv 121 / 122 40% 1 19.09.2028 -
Jorge Rivaldo Real Cartagena Aktiv 131 / 123 40% 1 17.09.2028 -
Iker Bravo Napoli Aktiv 146 / 148 40% 1 14.09.2028 -
Erick Dolly Black Aces Aktiv 134 / 132 40% 1 13.09.2028 -
Petter Nosa Dahl Rapid Wien Aktiv 130 / 140 40% 1 13.09.2028 -
Prince Adu Kwabena Paris Saint-Germain Aktiv 135 / 130 40% 1 13.09.2028 -
Yoshan Valois Lanús Aktiv 113 / 118 40% 2 10.09.2028 -
Snyder Brunell Seattle Sounders Aktiv 86 / 90 40% 1 30.08.2028 -
Muminhon Bahodirxonov Neftchi Aktiv 89 / 111 40% 1 30.08.2028 -
Thulani Manyama Portland Timbers Aktiv 112 / 129 40% 1 29.08.2028 -
Matías Magdaleno Estudiantes Aktiv 107 / 124 40% 1 29.08.2028 -
Valentín Loza Defensa y Justicia Aktiv 99 / 106 40% 1 29.08.2028 -
Andrea Pinamonti Lazio Aktiv 152 / 151 40% 1 14.08.2028 -
Lukáš Vorlický Slovacko Bericht bereit 117 / 123 72% 1 31.07.2028 -
Aune Heggebø West Bromwich Albion Verloren 131 / 133 40% 1 31.07.2028 -
El Bilal Touré Atalanta Aktiv 144 / 145 40% 1 31.07.2028 -
Mattia Felici Cagliari Verloren 145 / 131 40% 1 31.07.2028 -
Sindre Walle Egeli Udinese Verloren 143 / 139 40% 1 24.07.2028 -
Armando Broja Burnley Verloren 142 / 151 40% 1 24.07.2028 -
Moise Kean Fiorentina Aktiv 164 / 154 40% 1 24.07.2028 -
Gabe Forsyth Colchester United Aktiv 111 / 117 40% 1 26.06.2028 -
Guillermo de Amores Mlada Boleslav Verloren 114 / 110 72% 1 19.06.2028 -
Eli Junior Kroupi Bournemouth Verloren 144 / 146 40% 1 19.06.2028 -
Gianluca Scamacca Atalanta Verloren 161 / 156 40% 1 19.06.2028 -
Manfred Ugalde Spartak Moscow Verloren 140 / 135 40% 1 19.06.2028 -
Saidou Alioum Jablonec Aktiv 121 / 120 72% 1 12.06.2028 Befürworten
Michal Kohút Banik Ostrava Verloren 131 / 128 72% 1 05.06.2028 -
Jarrod Bowen West Ham United Aktiv 157 / 153 40% 1 02.06.2028 -
Malick Fofana Sunderland Aktiv 155 / 156 40% 1 31.05.2028 -
Matt O'Riley Brighton Aktiv 155 / 152 40% 1 31.05.2028 -
Jaidon Anthony Derby County Aktiv 149 / 134 40% 1 31.05.2028 -
Konta Ismaily Aktiv 89 / 102 40% 5 24.05.2028 -
Nicolò Moranduzzo Renate Aktiv 90 / 94 40% 4 24.05.2028 -
Tobiáš Pališčák Zlin Aktiv 102 / 102 40% 3 23.05.2028 -
Honest Ahanor Atalanta Aktiv 139 / 135 40% 7 19.05.2028 -
Thijs Kraaijeveld USM Alger Aktiv 117 / 135 40% 4 19.05.2028 -
Jorthy Mokio ADO Den Haag Aktiv 137 / 134 40% 6 18.05.2028 -
Morteza Torabi Malavan Aktiv 92 / 113 40% 2 18.05.2028 -
Giovanni Leoni Lincoln City Aktiv 138 / 150 40% 7 17.05.2028 -
Ayden Heaven Portsmouth Aktiv 145 / 156 40% 6 17.05.2028 -
Kwesi Sorotu Badori Berekum Chelsea Aktiv 90 / 97 40% 3 16.05.2028 -
Daniel Banjaqui Benfica Aktiv 119 / 127 40% 7 15.05.2028 -
Amine Boukamir Charleroi Aktiv 99 / 112 40% 3 15.05.2028 -
Jan Bürger Northampton Town Aktiv 116 / 120 40% 4 14.05.2028 -
Kubrat Onasci Septemvri Aktiv 105 / 108 40% 1 14.05.2028 -
Martim Cunha Porto Aktiv 110 / 118 40% 8 12.05.2028 -
Bernardo Lima Porto Aktiv 103 / 120 40% 6 07.05.2028 -
Olivier Mambwa Young Boys Aktiv 114 / 114 40% 1 05.05.2028 -
Olivier Leroux Mouscron Aktiv 101 / 112 40% 3 04.05.2028 -
Kiani Inge Groningen Aktiv 105 / 124 40% 1 04.05.2028 -
Andrey Ivlev Nizhniy Novgorod Aktiv 116 / 120 40% 4 03.05.2028 -
Riquelme Thompson-Jones Accrington Stanley Aktiv 105 / 117 40% 5 01.05.2028 -
Federico Matarán Giana Erminio Aktiv 99 / 117 40% 2 29.04.2028 -
Thato Sibiya Orlando Pirates Aktiv 122 / 116 40% 2 26.04.2028 -
Kamaldeen Atiemo Wa All Stars Aktiv 102 / 110 40% 2 24.04.2028 -
Musa Danjuma Umraniyespor Aktiv 101 / 114 40% 1 23.04.2028 -
Stanislav Coufal Pribram Aktiv 107 / 114 40% 2 22.04.2028 -
Augusto Bando Ascoli Aktiv 111 / 111 40% 1 21.04.2028 -
Romuald Sawadogo Hapoel Raanana Aktiv 96 / 109 40% 2 12.04.2028 -
Matvey Bardachev Zenit Aktiv 113 / 114 40% 3 11.04.2028 -
Josh Nichols Oldham Athletic Aktiv 122 / 124 40% 6 30.03.2028 -
Josh Acheampong Everton Aktiv 144 / 149 40% 1 22.03.2028 -
Kirill Kistenev Botev Vratsa Aktiv 94 / 95 40% 1 22.03.2028 -
Nicolas Sport Recife Aktiv 104 / 122 40% 1 04.03.2028 -
Archie Gray Southampton Aktiv 150 / 161 40% 4 02.03.2028 -
Zane Albarus Shrewsbury Town Aktiv 103 / 109 40% 2 28.02.2028 -
Makar Vysochenko Spartak Moscow Aktiv 91 / 100 40% 1 17.02.2028 -
Colin Guske Orlando City Aktiv 94 / 95 40% 2 15.02.2028 -
Ignacio Fernández Boston River Aktiv 99 / 108 40% 1 31.01.2028 -
Agustín Obregón River Plate Aktiv 108 / 129 40% 2 24.01.2028 -
Matias Siltanen Malmo FF Aktiv 129 / 128 40% 1 24.01.2028 -
Jesus Ferreira Seattle Sounders Aktiv 124 / 139 40% 4 01.01.2028 -
Talles Magno New York City Aktiv 128 / 134 40% 4 01.01.2028 -
Facundo Torres Millonarios Aktiv 134 / 134 67% 1 01.01.2028 Befürworten
Ben Gannon Doak Charlton Athletic Aktiv 149 / 145 40% 3 31.12.2027 -
Marco Pašalić Orlando City Aktiv 139 / 137 40% 6 31.12.2027 -
Matías Zaracho Racing Club Aktiv 124 / 119 40% 1 31.12.2027 -
Facundo Colidio Vasco da Gama Aktiv 141 / 125 40% 4 29.12.2027 -
Gabriel Pec Cruzeiro Aktiv 125 / 121 40% 4 29.12.2027 -
Nuno Moreira Vasco da Gama Aktiv 124 / 135 40% 7 28.12.2027 -
Renan Lodi Atlético Mineiro Aktiv 149 / 126 40% 5 28.12.2027 -
Eric Ramires Bragantino Aktiv 135 / 135 40% 1 28.12.2027 -
Benjamín Rollheiser Santos Aktiv 128 / 128 40% 4 27.12.2027 -
Matheus Bidu Corinthians Aktiv 140 / 130 40% 3 27.12.2027 -
Nuno Santos SuperSport United Aktiv 144 / 118 40% 1 27.12.2027 -
Andrés Gómez Vasco da Gama Aktiv 131 / 138 40% 8 26.12.2027 -
Yeremy Pino Crystal Palace Aktiv 160 / 153 40% 1 24.12.2027 -
Telasco Segovia Inter Miami CF Aktiv 135 / 141 40% 3 23.12.2027 -
Henry Mosquera Bragantino Aktiv 143 / 126 40% 6 20.12.2027 -
Rodrigo Garro Corinthians Aktiv 137 / 135 40% 5 20.12.2027 -
Agustín Giay Palmeiras Aktiv 137 / 135 40% 1 19.12.2027 -
Pedro de la Vega Columbus Crew Aktiv 143 / 125 66% 4 17.12.2027 Befürworten
Antony Portland Timbers Aktiv 146 / 125 40% 3 17.12.2027 -
Danilo Botafogo Aktiv 152 / 131 40% 2 17.12.2027 -
Liel Abada Inter Miami CF Aktiv 144 / 128 40% 5 16.12.2027 -
Luca Langoni Columbus Crew Aktiv 128 / 133 40% 6 15.12.2027 -
Maurício Palmeiras Aktiv 147 / 133 40% 2 15.12.2027 -
Ismaïla Sarr Crystal Palace Aktiv 161 / 160 40% 2 12.12.2027 -
Jens Petter Hauge Bodo/Glimt Aktiv 144 / 140 40% 9 12.12.2027 -
Luis Sinisterra Cruzeiro Aktiv 144 / 150 40% 5 12.12.2027 -
Marcos Antonio Sport Recife Aktiv 139 / 141 40% 4 10.12.2027 -
Alex Luna Instituto Aktiv 142 / 126 40% 3 10.12.2027 -
Kevin Fulham Aktiv 152 / 157 40% 1 09.12.2027 -
Edvard Pettersen Sandefjord Aktiv 113 / 110 40% 1 09.12.2027 -
Luciano Juba Bahia Aktiv 137 / 130 40% 1 22.11.2027 -
Leandro Andrade Chicago Fire Aktiv 133 / 122 40% 2 16.11.2027 -
Ismaël Bennacer Boca Juniors Aktiv 136 / 156 40% 1 10.11.2027 -
Kevin Zenón Boca Juniors Aktiv 136 / 134 40% 3 08.11.2027 -
Alexandro Bernabei Internacional Aktiv 129 / 145 40% 1 08.11.2027 -
Santiago Rodríguez Columbus Crew Aktiv 120 / 131 40% 2 06.11.2027 -
Emile Smith Rowe Cardiff City Aktiv 151 / 148 40% 2 29.10.2027 -
Luca De La Torre Charlotte Football Club Aktiv 144 / 128 40% 3 29.10.2027 -
Odin Bjørtuft Bodo/Glimt Aktiv 127 / 137 40% 1 28.10.2027 -
Martín Ojeda Orlando City Aktiv 140 / 136 40% 4 27.10.2027 -
Djordje Mihailović Toronto FC Aktiv 124 / 131 40% 4 27.10.2027 -
Bruno Gomes Internacional Aktiv 139 / 133 40% 2 20.10.2027 -
Ramón Sosa Palmeiras Aktiv 130 / 144 40% 1 20.10.2027 -
Noni Madueke Arsenal Aktiv 154 / 160 40% 2 18.10.2027 -
Paxten Aaronson Colorado Rapids Aktiv 126 / 140 40% 3 16.10.2027 -
Erick Pulga Bahia Aktiv 144 / 120 40% 2 16.10.2027 -
Matko Miljevic Racing Club Aktiv 121 / 138 40% 2 15.10.2027 -
Christian Kouamé Atlético Mineiro Aktiv 123 / 125 40% 1 15.10.2027 -
Fredrik Bjørkan Bodo/Glimt Aktiv 133 / 130 40% 3 14.10.2027 -
Pavel Bucha Portland Timbers Aktiv 128 / 137 40% 2 09.10.2027 -
Alan Lescano Argentinos Juniors Aktiv 139 / 126 40% 2 03.10.2027 -
Elias Achouri San Diego Football Club Aktiv 123 / 123 40% 2 03.10.2027 -
Vitinho Botafogo Aktiv 140 / 141 40% 1 02.10.2027 -
Rodrigo Gomes Wolverhampton Aktiv 139 / 150 40% 1 25.09.2027 -
Ole-Didrik Blomberg Bodo/Glimt Aktiv 137 / 124 40% 2 22.09.2027 -
David Da Costa Portland Timbers Aktiv 122 / 117 40% 2 22.09.2027 -
Marcus Tavernier Bournemouth Aktiv 157 / 146 40% 1 18.09.2027 -
Juanlu Bournemouth Aktiv 159 / 153 40% 1 18.09.2027 -
Gabriel Pirani San Diego Football Club Aktiv 125 / 129 40% 1 18.09.2027 -
César Inga Universitario Aktiv 134 / 130 40% 1 17.09.2027 -
Óscar Mingueza Crystal Palace Aktiv 161 / 161 40% 1 15.09.2027 -
Fredrik Sjøvold Bodo/Glimt Aktiv 141 / 137 40% 2 14.09.2027 -
David Douděra New York Red Bulls Aktiv 124 / 130 40% 1 14.09.2027 -
Celías Ingenthron Platense Aktiv 110 / 115 40% 1 24.08.2027 -
Vittorio Magni Cesena Aktiv 109 / 113 40% 1 16.08.2027 -
Rhys Walters Port Vale Aktiv 100 / 113 40% 1 12.07.2027 -
Mbekezeli Mbokazi Chicago Fire Aktiv 121 / 119 40% 1 12.07.2027 -
Gady Beyuku Blackburn Rovers Aktiv 111 / 118 40% 1 12.07.2027 -
Tomáš Ladra Viktoria Plzen Aktiv 120 / 124 65% 1 14.06.2027 Befürworten
Sampson Dweh Mallorca Aktiv 133 / 134 66% 1 01.06.2027 Befürworten
Stanislav Agkatsev Brentford Aktiv 132 / 133 66% 1 01.06.2027 Befürworten
Luiz Henrique AS Roma Aktiv 142 / 143 68% 1 01.06.2027 Befürworten
Lukas Nmecha Leeds United Aktiv 139 / 130 40% 1 01.06.2027 -
Joe Gelhardt Hull City Aktiv 137 / 132 40% 1 31.05.2027 -
Matěj Vydra Viktoria Plzen Aktiv 129 / 134 58% 1 01.01.2027 Befürworten
Filip Kubala Banik Ostrava Aktiv 109 / 115 55% 1 10.08.2026 -
Beñat Turrientes Real Sociedad Aktiv 145 / 144 40% 1 01.08.2026 -
Ainsley Maitland-Niles Everton Aktiv 143 / 140 40% 1 01.08.2026 -